sensor_id;sensor_type;location;lat;lon;timestamp;P1;durP1;ratioP1;P2;durP2;ratioP2
73154;SDS011;61364;52.418;7.382;2022-07-21T00:01:30;10.88;;;10.88;;
73154;SDS011;61364;52.418;7.382;2022-07-21T00:03:56;10.97;;;10.97;;
73154;SDS011;61364;52.418;7.382;2022-07-21T00:06:22;11.12;;;11.12;;
73154;SDS011;61364;52.418;7.382;2022-07-21T00:08:47;11.38;;;11.38;;
73154;SDS011;61364;52.418;7.382;2022-07-21T00:11:13;11.47;;;11.47;;
73154;SDS011;61364;52.418;7.382;2022-07-21T00:13:44;12.72;;;12.72;;
73154;SDS011;61364;52.418;7.382;2022-07-21T00:16:18;12.34;;;12.34;;
73154;SDS011;61364;52.418;7.382;2022-07-21T00:18:49;11.59;;;11.59;;
73154;SDS011;61364;52.418;7.382;2022-07-21T00:21:14;11.69;;;11.69;;
73154;SDS011;61364;52.418;7.382;2022-07-21T00:23:40;11.57;;;11.57;;
73154;SDS011;61364;52.418;7.382;2022-07-21T00:26:06;11.66;;;11.66;;
73154;SDS011;61364;52.418;7.382;2022-07-21T00:28:32;12.06;;;12.06;;
73154;SDS011;61364;52.418;7.382;2022-07-21T00:30:58;12.30;;;12.30;;
73154;SDS011;61364;52.418;7.382;2022-07-21T00:33:24;13.61;;;13.61;;
73154;SDS011;61364;52.418;7.382;2022-07-21T00:35:49;14.45;;;14.45;;
73154;SDS011;61364;52.418;7.382;2022-07-21T00:38:15;14.06;;;14.06;;
73154;SDS011;61364;52.418;7.382;2022-07-21T00:40:40;14.66;;;14.66;;
73154;SDS011;61364;52.418;7.382;2022-07-21T00:43:06;13.97;;;13.94;;
73154;SDS011;61364;52.418;7.382;2022-07-21T00:45:31;14.83;;;14.80;;
73154;SDS011;61364;52.418;7.382;2022-07-21T00:47:57;14.38;;;14.38;;
73154;SDS011;61364;52.418;7.382;2022-07-21T00:50:23;13.82;;;13.72;;
73154;SDS011;61364;52.418;7.382;2022-07-21T00:52:49;14.73;;;14.72;;
73154;SDS011;61364;52.418;7.382;2022-07-21T00:55:16;14.95;;;14.91;;
73154;SDS011;61364;52.418;7.382;2022-07-21T00:57:43;14.84;;;14.80;;
73154;SDS011;61364;52.418;7.382;2022-07-21T01:00:14;14.49;;;14.40;;
73154;SDS011;61364;52.418;7.382;2022-07-21T01:02:42;14.85;;;14.80;;
73154;SDS011;61364;52.418;7.382;2022-07-21T01:05:08;13.87;;;13.86;;
73154;SDS011;61364;52.418;7.382;2022-07-21T01:07:38;13.93;;;13.93;;
73154;SDS011;61364;52.418;7.382;2022-07-21T01:10:04;13.07;;;13.02;;
73154;SDS011;61364;52.418;7.382;2022-07-21T01:12:30;13.54;;;13.54;;
73154;SDS011;61364;52.418;7.382;2022-07-21T01:14:56;13.06;;;13.06;;
73154;SDS011;61364;52.418;7.382;2022-07-21T01:17:23;12.21;;;12.21;;
73154;SDS011;61364;52.418;7.382;2022-07-21T01:19:49;11.53;;;11.53;;
73154;SDS011;61364;52.418;7.382;2022-07-21T01:22:17;11.87;;;11.87;;
73154;SDS011;61364;52.418;7.382;2022-07-21T01:24:42;11.29;;;11.29;;
73154;SDS011;61364;52.418;7.382;2022-07-21T01:27:08;10.37;;;10.37;;
73154;SDS011;61364;52.418;7.382;2022-07-21T01:29:34;11.69;;;11.64;;
73154;SDS011;61364;52.418;7.382;2022-07-21T01:32:00;11.10;;;10.94;;
73154;SDS011;61364;52.418;7.382;2022-07-21T01:34:28;10.05;;;10.05;;
73154;SDS011;61364;52.418;7.382;2022-07-21T01:36:54;10.48;;;10.48;;
73154;SDS011;61364;52.418;7.382;2022-07-21T01:39:19;10.52;;;10.50;;
73154;SDS011;61364;52.418;7.382;2022-07-21T01:42:03;10.81;;;10.81;;
73154;SDS011;61364;52.418;7.382;2022-07-21T01:44:29;10.90;;;10.90;;
73154;SDS011;61364;52.418;7.382;2022-07-21T01:46:55;10.66;;;10.66;;
73154;SDS011;61364;52.418;7.382;2022-07-21T01:49:21;11.38;;;11.38;;
73154;SDS011;61364;52.418;7.382;2022-07-21T01:51:47;11.77;;;11.77;;
73154;SDS011;61364;52.418;7.382;2022-07-21T01:54:13;11.84;;;11.77;;
73154;SDS011;61364;52.418;7.382;2022-07-21T01:56:39;11.66;;;11.66;;
73154;SDS011;61364;52.418;7.382;2022-07-21T01:59:05;11.58;;;11.57;;
73154;SDS011;61364;52.418;7.382;2022-07-21T02:01:31;10.84;;;10.84;;
73154;SDS011;61364;52.418;7.382;2022-07-21T02:03:58;11.00;;;11.00;;
73154;SDS011;61364;52.418;7.382;2022-07-21T02:06:25;11.51;;;11.51;;
73154;SDS011;61364;52.418;7.382;2022-07-21T02:08:50;12.12;;;12.12;;
73154;SDS011;61364;52.418;7.382;2022-07-21T02:11:17;10.76;;;10.75;;
73154;SDS011;61364;52.418;7.382;2022-07-21T02:13:43;10.88;;;10.78;;
73154;SDS011;61364;52.418;7.382;2022-07-21T02:16:10;10.55;;;10.55;;
73154;SDS011;61364;52.418;7.382;2022-07-21T02:18:36;10.91;;;10.91;;
73154;SDS011;61364;52.418;7.382;2022-07-21T02:21:03;11.16;;;11.16;;
73154;SDS011;61364;52.418;7.382;2022-07-21T02:23:29;12.37;;;12.37;;
73154;SDS011;61364;52.418;7.382;2022-07-21T02:25:55;12.72;;;12.62;;
73154;SDS011;61364;52.418;7.382;2022-07-21T02:28:22;12.65;;;12.65;;
73154;SDS011;61364;52.418;7.382;2022-07-21T02:30:48;12.84;;;12.84;;
73154;SDS011;61364;52.418;7.382;2022-07-21T02:33:13;13.24;;;13.20;;
73154;SDS011;61364;52.418;7.382;2022-07-21T02:35:40;12.23;;;12.23;;
73154;SDS011;61364;52.418;7.382;2022-07-21T02:38:06;13.21;;;13.21;;
73154;SDS011;61364;52.418;7.382;2022-07-21T02:40:32;12.38;;;12.38;;
73154;SDS011;61364;52.418;7.382;2022-07-21T02:42:58;12.06;;;12.03;;
73154;SDS011;61364;52.418;7.382;2022-07-21T02:45:23;12.92;;;12.92;;
73154;SDS011;61364;52.418;7.382;2022-07-21T02:50:18;12.63;;;12.63;;
73154;SDS011;61364;52.418;7.382;2022-07-21T02:52:45;13.16;;;13.16;;
73154;SDS011;61364;52.418;7.382;2022-07-21T02:55:11;13.66;;;13.66;;
73154;SDS011;61364;52.418;7.382;2022-07-21T02:57:36;13.80;;;13.80;;
73154;SDS011;61364;52.418;7.382;2022-07-21T03:00:06;13.48;;;13.48;;
73154;SDS011;61364;52.418;7.382;2022-07-21T03:02:33;13.75;;;13.75;;
73154;SDS011;61364;52.418;7.382;2022-07-21T03:04:58;13.63;;;13.63;;
73154;SDS011;61364;52.418;7.382;2022-07-21T03:07:24;13.95;;;13.95;;
73154;SDS011;61364;52.418;7.382;2022-07-21T03:09:50;13.52;;;13.52;;
73154;SDS011;61364;52.418;7.382;2022-07-21T03:12:16;13.84;;;13.84;;
73154;SDS011;61364;52.418;7.382;2022-07-21T03:14:41;14.02;;;14.02;;
73154;SDS011;61364;52.418;7.382;2022-07-21T03:17:07;13.70;;;13.70;;
73154;SDS011;61364;52.418;7.382;2022-07-21T03:19:33;13.37;;;13.37;;
73154;SDS011;61364;52.418;7.382;2022-07-21T03:21:58;12.68;;;12.68;;
73154;SDS011;61364;52.418;7.382;2022-07-21T03:24:24;12.53;;;12.53;;
73154;SDS011;61364;52.418;7.382;2022-07-21T03:26:50;12.84;;;12.84;;
73154;SDS011;61364;52.418;7.382;2022-07-21T03:29:15;13.10;;;13.10;;
73154;SDS011;61364;52.418;7.382;2022-07-21T03:31:41;12.58;;;12.58;;
73154;SDS011;61364;52.418;7.382;2022-07-21T03:34:06;12.83;;;12.83;;
73154;SDS011;61364;52.418;7.382;2022-07-21T03:36:32;12.73;;;12.73;;
73154;SDS011;61364;52.418;7.382;2022-07-21T03:38:58;13.50;;;13.50;;
73154;SDS011;61364;52.418;7.382;2022-07-21T03:41:23;13.18;;;13.18;;
73154;SDS011;61364;52.418;7.382;2022-07-21T03:43:49;13.03;;;13.03;;
73154;SDS011;61364;52.418;7.382;2022-07-21T03:46:14;12.90;;;12.90;;
73154;SDS011;61364;52.418;7.382;2022-07-21T03:48:40;12.37;;;12.37;;
73154;SDS011;61364;52.418;7.382;2022-07-21T03:51:05;12.48;;;12.39;;
73154;SDS011;61364;52.418;7.382;2022-07-21T03:53:31;11.79;;;11.79;;
73154;SDS011;61364;52.418;7.382;2022-07-21T03:55:57;11.60;;;11.60;;
73154;SDS011;61364;52.418;7.382;2022-07-21T03:58:22;11.15;;;11.15;;
73154;SDS011;61364;52.418;7.382;2022-07-21T04:00:48;11.10;;;11.10;;
73154;SDS011;61364;52.418;7.382;2022-07-21T04:03:14;11.02;;;11.02;;
73154;SDS011;61364;52.418;7.382;2022-07-21T04:05:40;10.31;;;10.31;;
73154;SDS011;61364;52.418;7.382;2022-07-21T04:08:07;10.32;;;10.32;;
73154;SDS011;61364;52.418;7.382;2022-07-21T04:10:35;10.18;;;10.18;;
73154;SDS011;61364;52.418;7.382;2022-07-21T04:13:02;9.67;;;9.67;;
73154;SDS011;61364;52.418;7.382;2022-07-21T04:15:30;10.05;;;10.05;;
73154;SDS011;61364;52.418;7.382;2022-07-21T04:17:56;9.39;;;9.39;;
73154;SDS011;61364;52.418;7.382;2022-07-21T04:20:23;9.19;;;9.19;;
73154;SDS011;61364;52.418;7.382;2022-07-21T04:22:49;8.34;;;8.34;;
73154;SDS011;61364;52.418;7.382;2022-07-21T04:25:16;8.75;;;8.75;;
73154;SDS011;61364;52.418;7.382;2022-07-21T04:27:43;8.68;;;8.68;;
73154;SDS011;61364;52.418;7.382;2022-07-21T04:30:09;8.66;;;8.66;;
73154;SDS011;61364;52.418;7.382;2022-07-21T04:32:36;8.93;;;8.93;;
73154;SDS011;61364;52.418;7.382;2022-07-21T04:35:02;9.11;;;9.11;;
73154;SDS011;61364;52.418;7.382;2022-07-21T04:37:28;9.76;;;9.76;;
73154;SDS011;61364;52.418;7.382;2022-07-21T04:39:54;10.39;;;10.39;;
73154;SDS011;61364;52.418;7.382;2022-07-21T04:42:19;10.63;;;10.63;;
73154;SDS011;61364;52.418;7.382;2022-07-21T04:44:45;11.31;;;11.31;;
73154;SDS011;61364;52.418;7.382;2022-07-21T04:47:11;11.63;;;11.63;;
73154;SDS011;61364;52.418;7.382;2022-07-21T04:49:37;11.48;;;11.48;;
73154;SDS011;61364;52.418;7.382;2022-07-21T04:52:02;10.72;;;10.72;;
73154;SDS011;61364;52.418;7.382;2022-07-21T04:54:28;10.84;;;10.84;;
73154;SDS011;61364;52.418;7.382;2022-07-21T04:56:53;10.94;;;10.94;;
73154;SDS011;61364;52.418;7.382;2022-07-21T04:59:21;11.08;;;11.08;;
73154;SDS011;61364;52.418;7.382;2022-07-21T05:01:46;10.71;;;10.71;;
73154;SDS011;61364;52.418;7.382;2022-07-21T05:04:12;10.37;;;10.36;;
73154;SDS011;61364;52.418;7.382;2022-07-21T05:06:37;10.34;;;10.34;;
73154;SDS011;61364;52.418;7.382;2022-07-21T05:09:03;9.49;;;9.49;;
73154;SDS011;61364;52.418;7.382;2022-07-21T05:11:28;10.30;;;10.27;;
73154;SDS011;61364;52.418;7.382;2022-07-21T05:13:54;10.02;;;10.02;;
73154;SDS011;61364;52.418;7.382;2022-07-21T05:16:20;9.39;;;9.39;;
73154;SDS011;61364;52.418;7.382;2022-07-21T05:18:46;9.09;;;9.09;;
73154;SDS011;61364;52.418;7.382;2022-07-21T05:21:13;9.15;;;9.15;;
73154;SDS011;61364;52.418;7.382;2022-07-21T05:23:40;9.19;;;9.19;;
73154;SDS011;61364;52.418;7.382;2022-07-21T05:26:05;9.62;;;9.62;;
73154;SDS011;61364;52.418;7.382;2022-07-21T05:28:31;8.96;;;8.96;;
73154;SDS011;61364;52.418;7.382;2022-07-21T05:30:56;8.72;;;8.72;;
73154;SDS011;61364;52.418;7.382;2022-07-21T05:33:22;8.80;;;8.80;;
73154;SDS011;61364;52.418;7.382;2022-07-21T05:35:47;8.66;;;8.66;;
73154;SDS011;61364;52.418;7.382;2022-07-21T05:38:13;8.99;;;8.99;;
73154;SDS011;61364;52.418;7.382;2022-07-21T05:40:39;9.29;;;9.29;;
73154;SDS011;61364;52.418;7.382;2022-07-21T05:43:04;9.39;;;9.39;;
73154;SDS011;61364;52.418;7.382;2022-07-21T05:45:30;9.20;;;9.20;;
73154;SDS011;61364;52.418;7.382;2022-07-21T05:47:56;9.21;;;9.21;;
73154;SDS011;61364;52.418;7.382;2022-07-21T05:50:21;8.86;;;8.86;;
73154;SDS011;61364;52.418;7.382;2022-07-21T05:52:47;9.58;;;9.58;;
73154;SDS011;61364;52.418;7.382;2022-07-21T05:55:12;9.96;;;9.91;;
73154;SDS011;61364;52.418;7.382;2022-07-21T05:57:38;10.22;;;10.21;;
73154;SDS011;61364;52.418;7.382;2022-07-21T06:00:04;10.81;;;10.81;;
73154;SDS011;61364;52.418;7.382;2022-07-21T06:02:30;10.74;;;10.74;;
73154;SDS011;61364;52.418;7.382;2022-07-21T06:04:57;10.03;;;10.02;;
73154;SDS011;61364;52.418;7.382;2022-07-21T06:07:22;11.30;;;11.29;;
73154;SDS011;61364;52.418;7.382;2022-07-21T06:09:48;12.42;;;12.42;;
73154;SDS011;61364;52.418;7.382;2022-07-21T06:12:14;12.55;;;12.45;;
73154;SDS011;61364;52.418;7.382;2022-07-21T06:14:39;13.11;;;13.11;;
73154;SDS011;61364;52.418;7.382;2022-07-21T06:17:05;13.32;;;13.32;;
73154;SDS011;61364;52.418;7.382;2022-07-21T06:19:31;13.57;;;13.49;;
73154;SDS011;61364;52.418;7.382;2022-07-21T06:21:57;14.49;;;14.47;;
73154;SDS011;61364;52.418;7.382;2022-07-21T06:24:22;14.96;;;14.86;;
73154;SDS011;61364;52.418;7.382;2022-07-21T06:26:48;14.30;;;14.22;;
73154;SDS011;61364;52.418;7.382;2022-07-21T06:29:14;14.88;;;14.73;;
73154;SDS011;61364;52.418;7.382;2022-07-21T06:31:40;14.90;;;14.90;;
73154;SDS011;61364;52.418;7.382;2022-07-21T06:34:05;14.59;;;14.59;;
73154;SDS011;61364;52.418;7.382;2022-07-21T06:36:31;15.09;;;15.09;;
73154;SDS011;61364;52.418;7.382;2022-07-21T06:38:56;15.35;;;15.35;;
73154;SDS011;61364;52.418;7.382;2022-07-21T06:41:22;15.96;;;15.96;;
73154;SDS011;61364;52.418;7.382;2022-07-21T06:43:47;16.00;;;15.92;;
73154;SDS011;61364;52.418;7.382;2022-07-21T06:46:16;15.55;;;15.40;;
73154;SDS011;61364;52.418;7.382;2022-07-21T06:48:41;15.52;;;15.35;;
73154;SDS011;61364;52.418;7.382;2022-07-21T06:51:07;15.64;;;15.51;;
73154;SDS011;61364;52.418;7.382;2022-07-21T06:53:32;15.67;;;15.67;;
73154;SDS011;61364;52.418;7.382;2022-07-21T06:55:58;15.34;;;15.19;;
73154;SDS011;61364;52.418;7.382;2022-07-21T06:58:24;16.12;;;16.12;;
73154;SDS011;61364;52.418;7.382;2022-07-21T07:00:50;16.49;;;16.49;;
73154;SDS011;61364;52.418;7.382;2022-07-21T07:03:16;16.55;;;16.52;;
73154;SDS011;61364;52.418;7.382;2022-07-21T07:05:44;16.54;;;16.50;;
73154;SDS011;61364;52.418;7.382;2022-07-21T07:08:10;16.50;;;16.48;;
73154;SDS011;61364;52.418;7.382;2022-07-21T07:10:36;16.71;;;16.71;;
73154;SDS011;61364;52.418;7.382;2022-07-21T07:13:02;17.64;;;17.47;;
73154;SDS011;61364;52.418;7.382;2022-07-21T07:15:28;17.40;;;17.35;;
73154;SDS011;61364;52.418;7.382;2022-07-21T07:17:54;16.58;;;16.58;;
73154;SDS011;61364;52.418;7.382;2022-07-21T07:20:20;16.42;;;16.39;;
73154;SDS011;61364;52.418;7.382;2022-07-21T07:22:46;17.06;;;16.96;;
73154;SDS011;61364;52.418;7.382;2022-07-21T07:25:12;16.34;;;16.34;;
73154;SDS011;61364;52.418;7.382;2022-07-21T07:27:42;15.87;;;15.81;;
73154;SDS011;61364;52.418;7.382;2022-07-21T07:30:08;16.74;;;16.67;;
73154;SDS011;61364;52.418;7.382;2022-07-21T07:32:33;16.75;;;16.74;;
73154;SDS011;61364;52.418;7.382;2022-07-21T07:34:59;16.30;;;16.30;;
73154;SDS011;61364;52.418;7.382;2022-07-21T07:37:24;17.08;;;17.08;;
73154;SDS011;61364;52.418;7.382;2022-07-21T07:39:50;17.53;;;17.23;;
73154;SDS011;61364;52.418;7.382;2022-07-21T07:42:15;17.97;;;17.63;;
73154;SDS011;61364;52.418;7.382;2022-07-21T07:44:41;17.38;;;17.25;;
73154;SDS011;61364;52.418;7.382;2022-07-21T07:47:06;17.44;;;17.43;;
73154;SDS011;61364;52.418;7.382;2022-07-21T07:49:32;17.70;;;17.69;;
73154;SDS011;61364;52.418;7.382;2022-07-21T07:51:57;18.13;;;17.99;;
73154;SDS011;61364;52.418;7.382;2022-07-21T07:54:24;18.51;;;18.29;;
73154;SDS011;61364;52.418;7.382;2022-07-21T07:56:49;16.94;;;16.94;;
73154;SDS011;61364;52.418;7.382;2022-07-21T07:59:15;18.28;;;18.21;;
73154;SDS011;61364;52.418;7.382;2022-07-21T08:01:41;18.38;;;18.36;;
73154;SDS011;61364;52.418;7.382;2022-07-21T08:04:06;17.19;;;17.19;;
73154;SDS011;61364;52.418;7.382;2022-07-21T08:06:31;16.90;;;16.90;;
73154;SDS011;61364;52.418;7.382;2022-07-21T08:08:58;16.64;;;16.64;;
73154;SDS011;61364;52.418;7.382;2022-07-21T08:11:24;16.49;;;16.49;;
73154;SDS011;61364;52.418;7.382;2022-07-21T08:13:49;16.56;;;16.56;;
73154;SDS011;61364;52.418;7.382;2022-07-21T08:16:15;16.85;;;16.84;;
73154;SDS011;61364;52.418;7.382;2022-07-21T08:18:41;16.58;;;16.50;;
73154;SDS011;61364;52.418;7.382;2022-07-21T08:21:06;16.95;;;16.92;;
73154;SDS011;61364;52.418;7.382;2022-07-21T08:23:32;16.72;;;16.65;;
73154;SDS011;61364;52.418;7.382;2022-07-21T08:25:57;16.37;;;16.20;;
73154;SDS011;61364;52.418;7.382;2022-07-21T08:28:23;16.83;;;16.83;;
73154;SDS011;61364;52.418;7.382;2022-07-21T08:30:48;16.91;;;16.91;;
73154;SDS011;61364;52.418;7.382;2022-07-21T08:33:14;16.29;;;16.29;;
73154;SDS011;61364;52.418;7.382;2022-07-21T08:35:39;17.09;;;16.97;;
73154;SDS011;61364;52.418;7.382;2022-07-21T08:38:06;17.46;;;17.38;;
73154;SDS011;61364;52.418;7.382;2022-07-21T08:40:34;17.07;;;17.04;;
73154;SDS011;61364;52.418;7.382;2022-07-21T08:43:00;17.01;;;16.92;;
73154;SDS011;61364;52.418;7.382;2022-07-21T08:45:26;17.18;;;17.14;;
73154;SDS011;61364;52.418;7.382;2022-07-21T08:47:53;17.38;;;17.28;;
73154;SDS011;61364;52.418;7.382;2022-07-21T08:50:22;16.63;;;16.52;;
73154;SDS011;61364;52.418;7.382;2022-07-21T08:52:48;18.26;;;18.26;;
73154;SDS011;61364;52.418;7.382;2022-07-21T08:55:13;18.06;;;18.05;;
73154;SDS011;61364;52.418;7.382;2022-07-21T08:57:40;17.27;;;17.26;;
73154;SDS011;61364;52.418;7.382;2022-07-21T09:00:06;17.36;;;17.36;;
73154;SDS011;61364;52.418;7.382;2022-07-21T09:02:34;17.49;;;17.47;;
73154;SDS011;61364;52.418;7.382;2022-07-21T09:05:01;17.78;;;17.77;;
73154;SDS011;61364;52.418;7.382;2022-07-21T09:07:31;17.71;;;17.71;;
73154;SDS011;61364;52.418;7.382;2022-07-21T09:10:11;17.11;;;17.10;;
73154;SDS011;61364;52.418;7.382;2022-07-21T09:12:47;16.47;;;16.41;;
73154;SDS011;61364;52.418;7.382;2022-07-21T09:15:14;17.88;;;17.16;;
73154;SDS011;61364;52.418;7.382;2022-07-21T09:17:40;15.93;;;15.83;;
73154;SDS011;61364;52.418;7.382;2022-07-21T09:20:20;16.41;;;16.41;;
73154;SDS011;61364;52.418;7.382;2022-07-21T09:23:03;15.89;;;15.89;;
73154;SDS011;61364;52.418;7.382;2022-07-21T09:25:34;16.07;;;16.04;;
73154;SDS011;61364;52.418;7.382;2022-07-21T09:28:14;15.79;;;15.79;;
73154;SDS011;61364;52.418;7.382;2022-07-21T09:33:42;17.22;;;17.22;;
73154;SDS011;61364;52.418;7.382;2022-07-21T09:38:35;16.73;;;16.72;;
73154;SDS011;61364;52.418;7.382;2022-07-21T09:41:06;17.23;;;16.94;;
73154;SDS011;61364;52.418;7.382;2022-07-21T09:46:20;17.51;;;17.37;;
73154;SDS011;61364;52.418;7.382;2022-07-21T09:48:46;17.55;;;17.54;;
73154;SDS011;61364;52.418;7.382;2022-07-21T09:51:26;18.79;;;18.61;;
73154;SDS011;61364;52.418;7.382;2022-07-21T09:54:02;17.67;;;17.56;;
73154;SDS011;61364;52.418;7.382;2022-07-21T09:56:29;18.13;;;18.11;;
73154;SDS011;61364;52.418;7.382;2022-07-21T09:58:56;18.68;;;18.34;;
73154;SDS011;61364;52.418;7.382;2022-07-21T10:01:23;19.15;;;18.96;;
73154;SDS011;61364;52.418;7.382;2022-07-21T10:03:50;18.79;;;18.74;;
73154;SDS011;61364;52.418;7.382;2022-07-21T10:06:17;19.15;;;19.14;;
73154;SDS011;61364;52.418;7.382;2022-07-21T10:08:44;19.65;;;19.56;;
73154;SDS011;61364;52.418;7.382;2022-07-21T10:11:10;19.77;;;19.49;;
73154;SDS011;61364;52.418;7.382;2022-07-21T10:13:36;19.64;;;19.29;;
73154;SDS011;61364;52.418;7.382;2022-07-21T10:16:03;19.21;;;19.16;;
73154;SDS011;61364;52.418;7.382;2022-07-21T10:18:30;19.57;;;19.40;;
73154;SDS011;61364;52.418;7.382;2022-07-21T10:21:01;19.80;;;19.63;;
73154;SDS011;61364;52.418;7.382;2022-07-21T10:23:39;19.46;;;19.42;;
73154;SDS011;61364;52.418;7.382;2022-07-21T10:26:07;19.46;;;19.43;;
73154;SDS011;61364;52.418;7.382;2022-07-21T10:28:34;20.21;;;20.19;;
73154;SDS011;61364;52.418;7.382;2022-07-21T10:31:00;20.00;;;19.95;;
73154;SDS011;61364;52.418;7.382;2022-07-21T10:36:06;19.69;;;19.60;;
73154;SDS011;61364;52.418;7.382;2022-07-21T10:38:33;19.27;;;18.91;;
73154;SDS011;61364;52.418;7.382;2022-07-21T10:41:00;18.19;;;18.15;;
73154;SDS011;61364;52.418;7.382;2022-07-21T10:45:51;17.72;;;17.60;;
73154;SDS011;61364;52.418;7.382;2022-07-21T10:51:09;19.82;;;19.79;;
73154;SDS011;61364;52.418;7.382;2022-07-21T10:53:35;20.08;;;20.01;;
73154;SDS011;61364;52.418;7.382;2022-07-21T10:56:02;20.75;;;20.65;;
73154;SDS011;61364;52.418;7.382;2022-07-21T10:58:32;20.50;;;20.42;;
73154;SDS011;61364;52.418;7.382;2022-07-21T11:03:29;26.05;;;26.05;;
73154;SDS011;61364;52.418;7.382;2022-07-21T11:08:31;25.29;;;25.28;;
73154;SDS011;61364;52.418;7.382;2022-07-21T11:11:06;28.09;;;28.09;;
73154;SDS011;61364;52.418;7.382;2022-07-21T11:16:17;17.22;;;17.15;;
73154;SDS011;61364;52.418;7.382;2022-07-21T11:18:42;23.79;;;23.78;;
73154;SDS011;61364;52.418;7.382;2022-07-21T11:21:15;16.42;;;16.42;;
73154;SDS011;61364;52.418;7.382;2022-07-21T11:23:43;18.65;;;18.63;;
73154;SDS011;61364;52.418;7.382;2022-07-21T11:26:10;15.50;;;15.50;;
73154;SDS011;61364;52.418;7.382;2022-07-21T11:28:36;14.56;;;14.56;;
73154;SDS011;61364;52.418;7.382;2022-07-21T11:31:14;16.33;;;16.26;;
73154;SDS011;61364;52.418;7.382;2022-07-21T11:33:42;12.65;;;12.65;;
73154;SDS011;61364;52.418;7.382;2022-07-21T11:36:08;11.46;;;11.46;;
73154;SDS011;61364;52.418;7.382;2022-07-21T11:38:34;10.72;;;10.72;;
73154;SDS011;61364;52.418;7.382;2022-07-21T11:41:12;10.06;;;10.06;;
73154;SDS011;61364;52.418;7.382;2022-07-21T11:43:42;10.26;;;10.26;;
73154;SDS011;61364;52.418;7.382;2022-07-21T11:46:07;10.77;;;10.77;;
73154;SDS011;61364;52.418;7.382;2022-07-21T11:48:33;10.02;;;10.02;;
73154;SDS011;61364;52.418;7.382;2022-07-21T11:51:02;9.30;;;9.30;;
73154;SDS011;61364;52.418;7.382;2022-07-21T11:53:29;9.30;;;9.30;;
73154;SDS011;61364;52.418;7.382;2022-07-21T11:55:54;8.90;;;8.90;;
73154;SDS011;61364;52.418;7.382;2022-07-21T11:58:20;8.93;;;8.93;;
73154;SDS011;61364;52.418;7.382;2022-07-21T12:00:46;8.79;;;8.79;;
73154;SDS011;61364;52.418;7.382;2022-07-21T12:03:12;8.96;;;8.96;;
73154;SDS011;61364;52.418;7.382;2022-07-21T12:05:38;9.07;;;9.07;;
73154;SDS011;61364;52.418;7.382;2022-07-21T12:08:04;8.54;;;8.54;;
73154;SDS011;61364;52.418;7.382;2022-07-21T12:10:30;8.60;;;8.60;;
73154;SDS011;61364;52.418;7.382;2022-07-21T12:13:00;8.93;;;8.93;;
73154;SDS011;61364;52.418;7.382;2022-07-21T12:15:28;8.22;;;8.22;;
73154;SDS011;61364;52.418;7.382;2022-07-21T12:17:55;8.90;;;8.90;;
73154;SDS011;61364;52.418;7.382;2022-07-21T12:22:53;8.87;;;8.87;;
73154;SDS011;61364;52.418;7.382;2022-07-21T12:25:41;8.73;;;8.73;;
73154;SDS011;61364;52.418;7.382;2022-07-21T12:28:06;8.73;;;8.73;;
73154;SDS011;61364;52.418;7.382;2022-07-21T12:30:37;8.78;;;8.78;;
73154;SDS011;61364;52.418;7.382;2022-07-21T12:33:07;9.06;;;9.06;;
73154;SDS011;61364;52.418;7.382;2022-07-21T12:35:34;8.79;;;8.79;;
73154;SDS011;61364;52.418;7.382;2022-07-21T12:38:08;9.17;;;9.17;;
73154;SDS011;61364;52.418;7.382;2022-07-21T12:40:36;8.76;;;8.76;;
73154;SDS011;61364;52.418;7.382;2022-07-21T12:43:05;9.44;;;9.44;;
73154;SDS011;61364;52.418;7.382;2022-07-21T12:45:43;9.25;;;9.25;;
73154;SDS011;61364;52.418;7.382;2022-07-21T12:48:10;9.33;;;9.33;;
73154;SDS011;61364;52.418;7.382;2022-07-21T12:50:37;9.20;;;9.20;;
73154;SDS011;61364;52.418;7.382;2022-07-21T12:53:13;9.18;;;9.18;;
73154;SDS011;61364;52.418;7.382;2022-07-21T12:55:39;9.26;;;9.26;;
73154;SDS011;61364;52.418;7.382;2022-07-21T12:58:04;10.00;;;10.00;;
73154;SDS011;61364;52.418;7.382;2022-07-21T13:00:30;9.90;;;9.90;;
73154;SDS011;61364;52.418;7.382;2022-07-21T13:02:56;10.14;;;10.14;;
73154;SDS011;61364;52.418;7.382;2022-07-21T13:05:22;10.46;;;10.46;;
73154;SDS011;61364;52.418;7.382;2022-07-21T13:07:49;10.56;;;10.56;;
73154;SDS011;61364;52.418;7.382;2022-07-21T13:10:14;9.99;;;9.99;;
73154;SDS011;61364;52.418;7.382;2022-07-21T13:12:40;9.77;;;9.77;;
73154;SDS011;61364;52.418;7.382;2022-07-21T13:15:06;9.55;;;9.55;;
73154;SDS011;61364;52.418;7.382;2022-07-21T13:17:32;9.00;;;9.00;;
73154;SDS011;61364;52.418;7.382;2022-07-21T13:19:57;8.08;;;8.08;;
73154;SDS011;61364;52.418;7.382;2022-07-21T13:22:23;7.73;;;7.73;;
73154;SDS011;61364;52.418;7.382;2022-07-21T13:24:48;7.70;;;7.70;;
73154;SDS011;61364;52.418;7.382;2022-07-21T13:27:14;8.38;;;8.38;;
73154;SDS011;61364;52.418;7.382;2022-07-21T13:29:39;8.92;;;8.92;;
73154;SDS011;61364;52.418;7.382;2022-07-21T13:32:06;9.53;;;9.53;;
73154;SDS011;61364;52.418;7.382;2022-07-21T13:34:32;9.25;;;9.25;;
73154;SDS011;61364;52.418;7.382;2022-07-21T13:36:58;9.46;;;9.46;;
73154;SDS011;61364;52.418;7.382;2022-07-21T13:39:23;8.25;;;8.25;;
73154;SDS011;61364;52.418;7.382;2022-07-21T13:41:55;7.97;;;7.97;;
73154;SDS011;61364;52.418;7.382;2022-07-21T13:44:21;7.43;;;7.43;;
73154;SDS011;61364;52.418;7.382;2022-07-21T13:46:47;6.62;;;6.62;;
73154;SDS011;61364;52.418;7.382;2022-07-21T13:49:13;6.65;;;6.65;;
73154;SDS011;61364;52.418;7.382;2022-07-21T13:51:39;7.00;;;6.99;;
73154;SDS011;61364;52.418;7.382;2022-07-21T13:54:04;6.93;;;6.93;;
73154;SDS011;61364;52.418;7.382;2022-07-21T13:56:30;7.02;;;7.02;;
73154;SDS011;61364;52.418;7.382;2022-07-21T13:58:55;6.83;;;6.83;;
73154;SDS011;61364;52.418;7.382;2022-07-21T14:01:21;7.13;;;7.13;;
73154;SDS011;61364;52.418;7.382;2022-07-21T14:03:47;7.38;;;7.38;;
73154;SDS011;61364;52.418;7.382;2022-07-21T14:06:13;6.71;;;6.71;;
73154;SDS011;61364;52.418;7.382;2022-07-21T14:08:39;6.18;;;6.18;;
73154;SDS011;61364;52.418;7.382;2022-07-21T14:11:06;5.34;;;5.34;;
73154;SDS011;61364;52.418;7.382;2022-07-21T14:13:32;4.45;;;4.45;;
73154;SDS011;61364;52.418;7.382;2022-07-21T14:15:58;4.03;;;4.03;;
73154;SDS011;61364;52.418;7.382;2022-07-21T14:18:23;3.41;;;3.41;;
73154;SDS011;61364;52.418;7.382;2022-07-21T14:20:49;3.09;;;3.09;;
73154;SDS011;61364;52.418;7.382;2022-07-21T14:23:20;3.07;;;3.07;;
73154;SDS011;61364;52.418;7.382;2022-07-21T14:25:46;2.96;;;2.96;;
73154;SDS011;61364;52.418;7.382;2022-07-21T14:28:13;3.10;;;3.10;;
73154;SDS011;61364;52.418;7.382;2022-07-21T14:30:38;3.63;;;3.63;;
73154;SDS011;61364;52.418;7.382;2022-07-21T14:33:04;3.57;;;3.57;;
73154;SDS011;61364;52.418;7.382;2022-07-21T14:35:30;3.78;;;3.78;;
73154;SDS011;61364;52.418;7.382;2022-07-21T14:37:56;3.96;;;3.96;;
73154;SDS011;61364;52.418;7.382;2022-07-21T14:40:22;4.14;;;4.14;;
73154;SDS011;61364;52.418;7.382;2022-07-21T14:42:48;4.35;;;4.35;;
73154;SDS011;61364;52.418;7.382;2022-07-21T14:45:17;4.61;;;4.61;;
73154;SDS011;61364;52.418;7.382;2022-07-21T14:47:44;4.56;;;4.56;;
73154;SDS011;61364;52.418;7.382;2022-07-21T14:50:11;4.29;;;4.29;;
73154;SDS011;61364;52.418;7.382;2022-07-21T14:52:37;4.80;;;4.80;;
73154;SDS011;61364;52.418;7.382;2022-07-21T14:55:04;4.36;;;4.36;;